Time;durP1;ratioP1;P1;durP2;ratioP2;P2;SDS_P1;SDS_P2;PMS_P1;PMS_P2;Temp;Humidity;BMP_temperature;BMP_pressure;BME280_temperature;BME280_humidity;BME280_pressure;Samples;Min_cycle;Max_cycle;Signal;HPM_P1;HPM_P2
2022/11/09 00:00:12;;;;;;;28.70;15.50;;;;;;;11.21;100.00;100151.98;635694;1319;140981;-81
2022/11/09 00:15:32;;;;;;;23.90;15.40;;;;;;;11.10;100.00;100140.20;634752;1304;139910;-81
2022/11/09 00:30:36;;;;;;;32.50;18.20;;;;;;;10.96;100.00;100143.38;635521;1298;141916;-82
2022/11/09 00:45:40;;;;;;;31.10;15.60;;;;;;;10.85;100.00;100148.05;634729;1305;141067;-82
2022/11/09 01:00:43;;;;;;;37.50;19.80;;;;;;;10.66;100.00;100140.36;634242;1319;140896;-82
2022/11/09 01:15:49;;;;;;;36.30;18.50;;;;;;;10.44;100.00;100147.16;634686;1319;140356;-82
2022/11/09 01:30:53;;;;;;;38.10;18.60;;;;;;;10.32;100.00;100148.27;635717;1314;140916;-82
2022/11/09 01:46:11;;;;;;;33.80;18.20;;;;;;;10.21;100.00;100142.75;635124;1300;139551;-80
2022/11/09 02:01:16;;;;;;;35.70;19.40;;;;;;;10.06;100.00;100138.27;635508;1319;140248;-80
2022/11/09 02:16:21;;;;;;;35.30;18.10;;;;;;;9.95;100.00;100126.98;634974;1313;140391;-80
2022/11/09 02:31:32;;;;;;;37.00;20.20;;;;;;;9.88;100.00;100121.81;634252;1317;139151;-80
2022/11/09 02:46:36;;;;;;;35.90;19.60;;;;;;;9.83;100.00;100127.20;634573;1311;140059;-80
2022/11/09 03:01:40;;;;;;;36.20;17.50;;;;;;;9.81;100.00;100116.85;634563;1304;139025;-81
2022/11/09 03:16:44;;;;;;;43.20;18.80;;;;;;;9.87;100.00;100107.60;634173;1297;140780;-80
2022/11/09 03:31:53;;;;;;;41.90;21.60;;;;;;;9.85;100.00;100113.91;634707;1319;140245;-80
2022/11/09 03:46:57;;;;;;;40.80;22.40;;;;;;;9.79;100.00;100105.84;634811;1310;140315;-80
2022/11/09 04:02:01;;;;;;;56.80;24.90;;;;;;;9.71;100.00;100094.20;634625;1319;140029;-80
2022/11/09 04:17:06;;;;;;;44.20;23.70;;;;;;;9.68;100.00;100095.09;635365;1316;139924;-81
2022/11/09 04:32:10;;;;;;;44.50;21.30;;;;;;;9.62;100.00;100095.45;635760;1313;139799;-81
2022/11/09 04:47:13;;;;;;;41.80;22.00;;;;;;;9.63;100.00;100081.43;635285;1307;141024;-81
2022/11/09 05:02:16;;;;;;;40.20;22.00;;;;;;;9.61;100.00;100086.09;636157;1319;140842;-81
2022/11/09 05:17:19;;;;;;;54.80;26.30;;;;;;;9.57;100.00;100064.63;637386;1304;139883;-81
2022/11/09 05:32:23;;;;;;;46.50;26.20;;;;;;;9.39;100.00;100084.20;635095;1303;142549;-81
2022/11/09 05:47:26;;;;;;;40.20;21.20;;;;;;;9.23;100.00;100093.55;634766;1305;140588;-81
2022/11/09 06:02:31;;;;;;;46.80;23.30;;;;;;;9.18;100.00;100098.69;634977;1301;140120;-81
2022/11/09 06:17:34;;;;;;;52.70;26.50;;;;;;;9.23;100.00;100110.51;634468;1313;140117;-81
2022/11/09 06:32:38;;;;;;;47.00;22.90;;;;;;;9.32;100.00;100103.95;634800;1319;139630;-81
2022/11/09 06:47:41;;;;;;;44.70;22.70;;;;;;;9.47;100.00;100091.02;634328;1313;140174;-81
2022/11/09 07:02:45;;;;;;;48.90;24.00;;;;;;;9.63;100.00;100091.39;633026;1320;139027;-81
2022/11/09 07:17:49;;;;;;;46.40;22.90;;;;;;;9.78;100.00;100087.98;634383;1297;140611;-81
2022/11/09 07:32:53;;;;;;;77.30;40.60;;;;;;;9.92;100.00;100083.11;635250;1297;140644;-81
2022/11/09 07:48:12;;;;;;;48.90;25.90;;;;;;;10.13;100.00;100093.45;635313;1306;140377;-81
2022/11/09 08:03:18;;;;;;;55.50;28.60;;;;;;;10.40;100.00;100087.89;633288;1304;206540;-81
2022/11/09 08:18:22;;;;;;;43.70;22.50;;;;;;;10.89;100.00;100085.54;635033;1305;139920;-81
2022/11/09 08:33:28;;;;;;;49.70;26.20;;;;;;;11.46;100.00;100094.77;636759;1304;140730;-81
2022/11/09 08:48:31;;;;;;;44.40;24.30;;;;;;;12.21;100.00;100108.66;639631;1305;139688;-81
2022/11/09 09:03:36;;;;;;;43.10;23.50;;;;;;;12.79;100.00;100115.66;640421;1312;142080;-82
2022/11/09 09:18:41;;;;;;;42.00;21.60;;;;;;;12.83;100.00;100107.39;635180;1319;140765;-82
2022/11/09 09:33:49;;;;;;;46.00;24.10;;;;;;;12.68;100.00;100098.98;635268;1319;139367;-82
2022/11/09 09:49:01;;;;;;;57.00;29.60;;;;;;;12.79;100.00;100099.63;634423;1305;139823;-82
2022/11/09 10:04:20;;;;;;;46.60;24.80;;;;;;;13.18;100.00;100088.54;634778;1319;139816;-82
2022/11/09 10:19:48;;;;;;;43.70;22.70;;;;;;;13.28;100.00;100088.45;634683;1304;139443;-81
2022/11/09 10:35:16;;;;;;;44.90;23.30;;;;;;;13.88;98.97;100075.59;635660;1318;141399;-82
2022/11/09 10:50:21;;;;;;;45.50;23.90;;;;;;;14.16;97.98;100092.30;635148;1310;140767;-83
2022/11/09 11:05:57;;;;;;;41.10;23.10;;;;;;;14.13;96.75;100094.06;634758;1311;142017;-81
2022/11/09 11:21:24;;;;;;;43.00;24.90;;;;;;;14.48;96.01;100091.20;635531;1305;140245;-82
2022/11/09 11:37:04;;;;;;;40.70;21.80;;;;;;;14.80;94.64;100070.69;634371;1313;141135;-81
2022/11/09 11:52:33;;;;;;;41.20;22.80;;;;;;;15.72;92.21;100073.26;634111;1310;140627;-78
2022/11/09 12:08:06;;;;;;;46.60;26.70;;;;;;;14.94;91.04;100076.42;634480;1304;139474;-82
2022/11/09 12:24:04;;;;;;;43.30;23.90;;;;;;;14.45;93.16;100082.14;634005;1312;140234;-80
2022/11/09 12:39:39;;;;;;;47.10;22.10;;;;;;;14.36;95.01;100072.42;634635;1319;139777;-81
2022/11/09 12:55:03;;;;;;;44.90;24.30;;;;;;;14.20;96.15;100072.36;634780;1315;139227;-81
2022/11/09 13:10:35;;;;;;;48.10;24.60;;;;;;;14.03;98.90;100089.08;633310;1315;139644;-80
2022/11/09 13:25:59;;;;;;;47.80;23.60;;;;;;;14.00;99.39;100106.96;634696;1309;140901;-80
2022/11/09 13:41:30;;;;;;;48.60;25.60;;;;;;;14.02;98.83;100104.55;634275;1319;139875;-79
2022/11/09 13:56:53;;;;;;;63.70;32.30;;;;;;;14.05;98.42;100090.80;633223;1320;139247;-77
2022/11/09 14:12:45;;;;;;;62.70;30.70;;;;;;;14.00;97.84;100093.85;633908;1320;139576;-80
2022/11/09 14:28:33;;;;;;;60.50;35.80;;;;;;;13.89;98.47;100078.08;634027;1312;140341;-85
2022/11/09 14:43:58;;;;;;;54.70;29.00;;;;;;;13.71;99.70;100083.70;635692;1315;140726;-79
2022/11/09 14:59:30;;;;;;;106.40;50.30;;;;;;;13.63;100.00;100089.05;633422;1320;139697;-84
2022/11/09 15:15:00;;;;;;;53.40;28.40;;;;;;;13.53;100.00;100105.06;633349;1313;140470;-79
2022/11/09 15:30:28;;;;;;;67.10;37.40;;;;;;;13.47;100.00;100110.60;633539;1310;141777;-78
2022/11/09 15:45:51;;;;;;;60.00;32.30;;;;;;;13.40;100.00;100117.23;633929;1319;139543;-78
2022/11/09 16:01:15;;;;;;;62.50;36.20;;;;;;;13.34;100.00;100128.70;639497;1297;140127;-80
2022/11/09 16:16:38;;;;;;;72.60;37.70;;;;;;;13.31;100.00;100141.13;639339;1294;140790;-79
2022/11/09 16:32:01;;;;;;;91.80;49.30;;;;;;;13.19;100.00;100151.48;640534;1291;140051;-80
2022/11/09 16:47:27;;;;;;;83.60;46.60;;;;;;;13.08;100.00;100145.95;639854;1306;140113;-80
2022/11/09 17:02:50;;;;;;;64.50;32.90;;;;;;;12.85;100.00;100161.21;640396;1295;139468;-79
2022/11/09 17:18:14;;;;;;;67.80;35.20;;;;;;;12.75;100.00;100147.44;640728;1295;140008;-81
2022/11/09 17:33:36;;;;;;;61.60;32.20;;;;;;;12.72;100.00;100140.41;640695;1297;139827;-80
2022/11/09 17:48:58;;;;;;;70.40;35.10;;;;;;;12.70;100.00;100117.36;639777;1303;140217;-81
2022/11/09 18:04:25;;;;;;;90.20;42.50;;;;;;;12.66;100.00;100111.31;639243;1304;140659;-80
2022/11/09 18:19:48;;;;;;;79.50;37.00;;;;;;;12.65;100.00;100139.60;639942;1297;139408;-82
2022/11/09 18:35:11;;;;;;;71.00;35.30;;;;;;;12.64;100.00;100146.04;640589;1295;140212;-79
2022/11/09 18:50:36;;;;;;;72.10;36.10;;;;;;;12.71;100.00;100139.64;640055;1305;140277;-80
2022/11/09 19:06:03;;;;;;;73.20;34.20;;;;;;;12.75;100.00;100143.23;640638;1288;139675;-80
2022/11/09 19:21:37;;;;;;;70.30;33.40;;;;;;;12.75;100.00;100133.39;646147;1295;141498;-81
2022/11/09 19:36:59;;;;;;;60.20;30.40;;;;;;;12.82;100.00;100147.65;642956;1295;139722;-80
2022/11/09 19:52:22;;;;;;;57.30;29.40;;;;;;;12.82;100.00;100165.39;645076;1294;140011;-80
2022/11/09 20:07:43;;;;;;;60.30;30.90;;;;;;;12.81;100.00;100173.67;648378;1302;156093;-79
2022/11/09 20:23:06;;;;;;;58.30;30.50;;;;;;;12.77;100.00;100171.75;642833;1296;141119;-79
2022/11/09 20:38:29;;;;;;;57.10;29.20;;;;;;;12.62;100.00;100179.22;644130;1288;140730;-79
2022/11/09 20:53:51;;;;;;;64.30;32.30;;;;;;;12.51;100.00;100183.16;641644;1288;139908;-79
2022/11/09 21:09:14;;;;;;;65.50;30.60;;;;;;;12.42;100.00;100179.39;640916;1295;140895;-79
2022/11/09 21:40:17;;;;;;;65.10;30.60;;;;;;;12.35;100.00;100171.85;640786;1288;139913;-79
2022/11/09 21:55:39;;;;;;;69.60;32.50;;;;;;;12.31;100.00;100176.79;640302;1288;140595;-79
2022/11/09 22:11:10;;;;;;;72.60;32.80;;;;;;;12.26;100.00;100170.42;642166;1312;142004;-79
2022/11/09 22:26:33;;;;;;;68.40;32.70;;;;;;;12.22;100.00;100175.60;639561;1312;139405;-79
2022/11/09 22:41:55;;;;;;;69.90;32.10;;;;;;;12.19;100.00;100179.95;639477;1304;141003;-80
2022/11/09 22:57:17;;;;;;;76.30;34.20;;;;;;;12.12;100.00;100183.39;639658;1305;139702;-80
2022/11/09 23:12:39;;;;;;;66.00;31.80;;;;;;;12.05;100.00;100175.85;639391;1312;139333;-80
2022/11/09 23:28:02;;;;;;;70.90;30.60;;;;;;;11.98;100.00;100171.90;640432;1298;141101;-80
2022/11/09 23:43:24;;;;;;;70.80;32.60;;;;;;;11.82;100.00;100180.98;639633;1305;139652;-80
2022/11/09 23:58:48;;;;;;;81.70;35.70;;;;;;;11.67;100.00;100185.69;639740;1295;141696;-80
